sensor_id;sensor_type;location;lat;lon;timestamp;temperature;humidity
1886;SHT31;943;51.568;6.998;2023-06-24T00:03:14;16.50;99.90
1886;SHT31;943;51.568;6.998;2023-06-24T00:07:44;16.40;99.90
1886;SHT31;943;51.568;6.998;2023-06-24T00:12:14;16.30;99.90
1886;SHT31;943;51.568;6.998;2023-06-24T00:16:46;16.30;99.90
1886;SHT31;943;51.568;6.998;2023-06-24T00:21:16;16.20;99.90
1886;SHT31;943;51.568;6.998;2023-06-24T00:25:48;16.30;99.90
1886;SHT31;943;51.568;6.998;2023-06-24T00:30:18;16.20;99.90
1886;SHT31;943;51.568;6.998;2023-06-24T00:34:50;16.20;99.90
1886;SHT31;943;51.568;6.998;2023-06-24T00:39:22;16.20;99.90
1886;SHT31;943;51.568;6.998;2023-06-24T00:43:54;16.10;99.90
1886;SHT31;943;51.568;6.998;2023-06-24T00:48:24;16.10;99.90
1886;SHT31;943;51.568;6.998;2023-06-24T00:52:54;16.00;99.90
1886;SHT31;943;51.568;6.998;2023-06-24T00:57:24;16.00;99.90
1886;SHT31;943;51.568;6.998;2023-06-24T01:01:56;15.90;99.90
1886;SHT31;943;51.568;6.998;2023-06-24T01:06:29;15.90;99.90
1886;SHT31;943;51.568;6.998;2023-06-24T01:10:59;15.90;99.90
1886;SHT31;943;51.568;6.998;2023-06-24T01:15:29;15.90;99.90
1886;SHT31;943;51.568;6.998;2023-06-24T01:20:31;15.90;99.90
1886;SHT31;943;51.568;6.998;2023-06-24T01:35:54;15.70;99.90
1886;SHT31;943;51.568;6.998;2023-06-24T01:40:31;15.70;99.90
1886;SHT31;943;51.568;6.998;2023-06-24T01:45:04;15.70;99.90
1886;SHT31;943;51.568;6.998;2023-06-24T01:49:41;15.60;99.90
1886;SHT31;943;51.568;6.998;2023-06-24T01:54:16;15.60;99.90
1886;SHT31;943;51.568;6.998;2023-06-24T01:58:47;15.70;99.90
1886;SHT31;943;51.568;6.998;2023-06-24T02:03:22;15.60;99.90
1886;SHT31;943;51.568;6.998;2023-06-24T02:07:53;15.60;99.90
1886;SHT31;943;51.568;6.998;2023-06-24T02:12:29;15.60;99.90
1886;SHT31;943;51.568;6.998;2023-06-24T02:17:01;15.70;99.90
1886;SHT31;943;51.568;6.998;2023-06-24T02:21:35;15.70;99.90
1886;SHT31;943;51.568;6.998;2023-06-24T02:26:06;15.70;99.90
1886;SHT31;943;51.568;6.998;2023-06-24T02:30:38;15.60;99.90
1886;SHT31;943;51.568;6.998;2023-06-24T02:35:08;15.60;99.90
1886;SHT31;943;51.568;6.998;2023-06-24T02:39:39;15.60;99.90
1886;SHT31;943;51.568;6.998;2023-06-24T02:44:11;15.60;99.90
1886;SHT31;943;51.568;6.998;2023-06-24T02:48:44;15.50;99.90
1886;SHT31;943;51.568;6.998;2023-06-24T02:53:15;15.50;99.90
1886;SHT31;943;51.568;6.998;2023-06-24T02:57:49;15.50;99.90
1886;SHT31;943;51.568;6.998;2023-06-24T03:02:21;15.50;99.90
1886;SHT31;943;51.568;6.998;2023-06-24T03:06:52;15.60;99.90
1886;SHT31;943;51.568;6.998;2023-06-24T03:11:23;15.70;99.90
1886;SHT31;943;51.568;6.998;2023-06-24T03:16:01;15.80;99.90
1886;SHT31;943;51.568;6.998;2023-06-24T03:20:31;16.00;99.90
1886;SHT31;943;51.568;6.998;2023-06-24T03:25:08;16.10;99.90
1886;SHT31;943;51.568;6.998;2023-06-24T03:29:43;16.20;99.90
1886;SHT31;943;51.568;6.998;2023-06-24T03:34:18;16.30;99.90
1886;SHT31;943;51.568;6.998;2023-06-24T03:38:51;16.50;99.90
1886;SHT31;943;51.568;6.998;2023-06-24T03:43:22;16.60;99.90
1886;SHT31;943;51.568;6.998;2023-06-24T03:47:53;16.60;99.90
1886;SHT31;943;51.568;6.998;2023-06-24T03:52:23;16.50;99.90
1886;SHT31;943;51.568;6.998;2023-06-24T03:56:53;16.50;99.90
1886;SHT31;943;51.568;6.998;2023-06-24T04:01:25;16.60;99.90
1886;SHT31;943;51.568;6.998;2023-06-24T04:05:59;16.60;99.90
1886;SHT31;943;51.568;6.998;2023-06-24T04:10:31;16.60;99.90
1886;SHT31;943;51.568;6.998;2023-06-24T04:15:04;16.60;99.90
1886;SHT31;943;51.568;6.998;2023-06-24T04:19:34;16.70;99.90
1886;SHT31;943;51.568;6.998;2023-06-24T04:24:06;16.90;99.90
1886;SHT31;943;51.568;6.998;2023-06-24T04:28:37;17.10;99.90
1886;SHT31;943;51.568;6.998;2023-06-24T04:33:09;17.40;99.90
1886;SHT31;943;51.568;6.998;2023-06-24T04:37:39;17.70;99.90
1886;SHT31;943;51.568;6.998;2023-06-24T04:42:10;17.80;99.90
1886;SHT31;943;51.568;6.998;2023-06-24T04:46:40;17.80;99.90
1886;SHT31;943;51.568;6.998;2023-06-24T04:51:10;17.80;99.90
1886;SHT31;943;51.568;6.998;2023-06-24T04:55:40;17.90;99.90
1886;SHT31;943;51.568;6.998;2023-06-24T05:00:11;17.90;99.90
1886;SHT31;943;51.568;6.998;2023-06-24T05:04:41;18.00;99.90
1886;SHT31;943;51.568;6.998;2023-06-24T05:09:12;18.30;99.90
1886;SHT31;943;51.568;6.998;2023-06-24T05:13:42;18.70;99.90
1886;SHT31;943;51.568;6.998;2023-06-24T05:18:12;18.90;99.90
1886;SHT31;943;51.568;6.998;2023-06-24T05:22:45;19.10;99.90
1886;SHT31;943;51.568;6.998;2023-06-24T05:27:15;19.30;99.90
1886;SHT31;943;51.568;6.998;2023-06-24T05:31:47;19.40;99.90
1886;SHT31;943;51.568;6.998;2023-06-24T05:36:21;19.50;99.90
1886;SHT31;943;51.568;6.998;2023-06-24T05:40:55;19.80;99.90
1886;SHT31;943;51.568;6.998;2023-06-24T05:45:25;20.50;99.90
1886;SHT31;943;51.568;6.998;2023-06-24T05:49:54;21.10;99.90
1886;SHT31;943;51.568;6.998;2023-06-24T05:54:25;21.70;99.90
1886;SHT31;943;51.568;6.998;2023-06-24T05:58:55;21.90;99.90
1886;SHT31;943;51.568;6.998;2023-06-24T06:03:28;22.10;99.90
1886;SHT31;943;51.568;6.998;2023-06-24T06:07:59;23.30;99.90
1886;SHT31;943;51.568;6.998;2023-06-24T06:12:29;22.50;99.90
1886;SHT31;943;51.568;6.998;2023-06-24T06:16:59;21.80;99.90
1886;SHT31;943;51.568;6.998;2023-06-24T06:21:30;21.70;99.90
1886;SHT31;943;51.568;6.998;2023-06-24T06:26:00;21.60;99.90
1886;SHT31;943;51.568;6.998;2023-06-24T06:30:29;21.50;99.90
1886;SHT31;943;51.568;6.998;2023-06-24T06:35:00;21.90;99.90
1886;SHT31;943;51.568;6.998;2023-06-24T06:39:30;21.60;99.90
1886;SHT31;943;51.568;6.998;2023-06-24T06:44:00;22.00;99.90
1886;SHT31;943;51.568;6.998;2023-06-24T06:48:30;23.40;99.90
1886;SHT31;943;51.568;6.998;2023-06-24T06:52:59;24.10;99.90
1886;SHT31;943;51.568;6.998;2023-06-24T06:57:29;25.50;99.90
1886;SHT31;943;51.568;6.998;2023-06-24T07:01:59;25.90;99.90
1886;SHT31;943;51.568;6.998;2023-06-24T07:06:29;26.10;99.90
1886;SHT31;943;51.568;6.998;2023-06-24T07:10:59;25.80;99.90
1886;SHT31;943;51.568;6.998;2023-06-24T07:15:29;25.80;99.90
1886;SHT31;943;51.568;6.998;2023-06-24T07:19:59;24.90;99.90
1886;SHT31;943;51.568;6.998;2023-06-24T07:24:30;25.70;99.90
1886;SHT31;943;51.568;6.998;2023-06-24T07:29:00;26.40;99.90
1886;SHT31;943;51.568;6.998;2023-06-24T07:33:30;26.30;99.90
1886;SHT31;943;51.568;6.998;2023-06-24T07:38:02;25.80;99.90
1886;SHT31;943;51.568;6.998;2023-06-24T07:42:32;26.30;99.90
1886;SHT31;943;51.568;6.998;2023-06-24T07:47:03;25.50;99.90
1886;SHT31;943;51.568;6.998;2023-06-24T07:51:35;26.90;99.90
1886;SHT31;943;51.568;6.998;2023-06-24T07:56:06;27.70;99.90
1886;SHT31;943;51.568;6.998;2023-06-24T08:00:37;26.80;99.90
1886;SHT31;943;51.568;6.998;2023-06-24T08:05:08;26.60;99.90
1886;SHT31;943;51.568;6.998;2023-06-24T08:09:38;27.10;99.90
1886;SHT31;943;51.568;6.998;2023-06-24T08:14:09;26.70;99.90
1886;SHT31;943;51.568;6.998;2023-06-24T08:18:39;28.30;99.90
1886;SHT31;943;51.568;6.998;2023-06-24T08:23:08;28.90;99.90
1886;SHT31;943;51.568;6.998;2023-06-24T08:27:38;27.60;99.90
1886;SHT31;943;51.568;6.998;2023-06-24T08:32:11;27.00;99.90
1886;SHT31;943;51.568;6.998;2023-06-24T08:36:42;26.10;99.90
1886;SHT31;943;51.568;6.998;2023-06-24T08:41:14;27.10;99.90
1886;SHT31;943;51.568;6.998;2023-06-24T08:45:44;27.10;99.90
1886;SHT31;943;51.568;6.998;2023-06-24T08:50:16;27.00;99.90
1886;SHT31;943;51.568;6.998;2023-06-24T08:54:50;26.30;99.90
1886;SHT31;943;51.568;6.998;2023-06-24T08:59:21;27.50;99.90
1886;SHT31;943;51.568;6.998;2023-06-24T09:03:51;28.40;99.90
1886;SHT31;943;51.568;6.998;2023-06-24T09:08:21;28.90;99.90
1886;SHT31;943;51.568;6.998;2023-06-24T09:13:03;28.30;99.90
1886;SHT31;943;51.568;6.998;2023-06-24T09:17:44;28.70;99.90
1886;SHT31;943;51.568;6.998;2023-06-24T09:22:13;29.90;99.90
1886;SHT31;943;51.568;6.998;2023-06-24T09:26:43;29.70;99.90
1886;SHT31;943;51.568;6.998;2023-06-24T09:31:13;29.90;99.90
1886;SHT31;943;51.568;6.998;2023-06-24T09:35:43;29.80;99.90
1886;SHT31;943;51.568;6.998;2023-06-24T09:40:13;27.70;99.90
1886;SHT31;943;51.568;6.998;2023-06-24T09:44:43;28.00;99.90
1886;SHT31;943;51.568;6.998;2023-06-24T09:49:14;29.20;99.90
1886;SHT31;943;51.568;6.998;2023-06-24T09:53:44;29.10;99.90
1886;SHT31;943;51.568;6.998;2023-06-24T09:58:16;28.70;99.90
1886;SHT31;943;51.568;6.998;2023-06-24T10:02:52;29.20;99.90
1886;SHT31;943;51.568;6.998;2023-06-24T10:07:23;26.60;99.90
1886;SHT31;943;51.568;6.998;2023-06-24T10:11:53;26.30;99.90
1886;SHT31;943;51.568;6.998;2023-06-24T10:16:24;26.20;99.90
1886;SHT31;943;51.568;6.998;2023-06-24T10:20:54;26.80;99.90
1886;SHT31;943;51.568;6.998;2023-06-24T10:25:36;27.30;99.90
1886;SHT31;943;51.568;6.998;2023-06-24T10:30:07;27.50;99.90
1886;SHT31;943;51.568;6.998;2023-06-24T10:44:15;26.70;99.90
1886;SHT31;943;51.568;6.998;2023-06-24T10:48:47;26.80;99.90
1886;SHT31;943;51.568;6.998;2023-06-24T10:53:18;26.30;99.90
1886;SHT31;943;51.568;6.998;2023-06-24T10:57:47;25.70;99.90
1886;SHT31;943;51.568;6.998;2023-06-24T11:02:22;26.00;99.90
1886;SHT31;943;51.568;6.998;2023-06-24T11:06:59;26.00;99.20
1886;SHT31;943;51.568;6.998;2023-06-24T11:11:30;26.00;97.30
1886;SHT31;943;51.568;6.998;2023-06-24T11:16:00;26.00;98.10
1886;SHT31;943;51.568;6.998;2023-06-24T11:20:31;26.00;99.90
1886;SHT31;943;51.568;6.998;2023-06-24T11:25:15;26.40;97.10
1886;SHT31;943;51.568;6.998;2023-06-24T11:29:45;26.50;98.20
1886;SHT31;943;51.568;6.998;2023-06-24T11:34:14;26.30;99.40
1886;SHT31;943;51.568;6.998;2023-06-24T11:38:48;26.10;94.70
1886;SHT31;943;51.568;6.998;2023-06-24T11:43:18;26.30;93.50
1886;SHT31;943;51.568;6.998;2023-06-24T11:47:48;26.20;94.60
1886;SHT31;943;51.568;6.998;2023-06-24T11:52:18;26.00;98.70
1886;SHT31;943;51.568;6.998;2023-06-24T11:56:52;26.40;96.90
1886;SHT31;943;51.568;6.998;2023-06-24T12:01:31;26.60;95.90
1886;SHT31;943;51.568;6.998;2023-06-24T12:06:01;26.70;97.20
1886;SHT31;943;51.568;6.998;2023-06-24T12:10:31;26.40;92.40
1886;SHT31;943;51.568;6.998;2023-06-24T12:15:01;27.00;93.10
1886;SHT31;943;51.568;6.998;2023-06-24T12:19:31;27.20;93.10
1886;SHT31;943;51.568;6.998;2023-06-24T12:24:02;27.30;92.90
1886;SHT31;943;51.568;6.998;2023-06-24T12:28:32;27.20;92.10
1886;SHT31;943;51.568;6.998;2023-06-24T12:33:02;26.80;93.30
1886;SHT31;943;51.568;6.998;2023-06-24T12:37:32;26.70;95.30
1886;SHT31;943;51.568;6.998;2023-06-24T12:42:02;26.90;94.60
1886;SHT31;943;51.568;6.998;2023-06-24T12:46:31;26.80;94.20
1886;SHT31;943;51.568;6.998;2023-06-24T12:51:01;26.70;95.90
1886;SHT31;943;51.568;6.998;2023-06-24T12:55:31;26.60;96.40
1886;SHT31;943;51.568;6.998;2023-06-24T13:00:01;26.80;93.80
1886;SHT31;943;51.568;6.998;2023-06-24T13:04:31;27.10;92.60
1886;SHT31;943;51.568;6.998;2023-06-24T13:09:02;27.40;94.30
1886;SHT31;943;51.568;6.998;2023-06-24T13:13:32;26.90;98.20
1886;SHT31;943;51.568;6.998;2023-06-24T13:18:04;26.60;97.80
1886;SHT31;943;51.568;6.998;2023-06-24T13:22:34;26.90;99.00
1886;SHT31;943;51.568;6.998;2023-06-24T13:27:04;27.00;99.90
1886;SHT31;943;51.568;6.998;2023-06-24T13:31:35;26.80;96.30
1886;SHT31;943;51.568;6.998;2023-06-24T13:36:07;26.60;94.90
1886;SHT31;943;51.568;6.998;2023-06-24T13:40:43;26.70;97.40
1886;SHT31;943;51.568;6.998;2023-06-24T13:45:13;27.10;92.60
1886;SHT31;943;51.568;6.998;2023-06-24T13:49:42;27.00;92.60
1886;SHT31;943;51.568;6.998;2023-06-24T13:54:12;27.10;98.90
1886;SHT31;943;51.568;6.998;2023-06-24T13:58:42;26.90;94.80
1886;SHT31;943;51.568;6.998;2023-06-24T14:03:12;26.80;95.80
1886;SHT31;943;51.568;6.998;2023-06-24T14:07:43;27.20;93.00
1886;SHT31;943;51.568;6.998;2023-06-24T14:12:13;27.10;97.20
1886;SHT31;943;51.568;6.998;2023-06-24T14:16:43;27.10;95.30
1886;SHT31;943;51.568;6.998;2023-06-24T14:21:13;27.10;96.90
1886;SHT31;943;51.568;6.998;2023-06-24T14:25:45;26.90;95.40
1886;SHT31;943;51.568;6.998;2023-06-24T14:30:16;27.20;97.50
1886;SHT31;943;51.568;6.998;2023-06-24T14:34:46;27.40;96.70
1886;SHT31;943;51.568;6.998;2023-06-24T14:39:16;27.50;94.00
1886;SHT31;943;51.568;6.998;2023-06-24T14:43:45;27.50;92.90
1886;SHT31;943;51.568;6.998;2023-06-24T14:48:15;27.50;94.90
1886;SHT31;943;51.568;6.998;2023-06-24T14:52:46;27.70;92.30
1886;SHT31;943;51.568;6.998;2023-06-24T14:57:15;27.40;95.30
1886;SHT31;943;51.568;6.998;2023-06-24T15:01:45;27.30;92.90
1886;SHT31;943;51.568;6.998;2023-06-24T15:06:14;27.30;90.60
1886;SHT31;943;51.568;6.998;2023-06-24T15:10:44;27.70;90.40
1886;SHT31;943;51.568;6.998;2023-06-24T15:15:15;27.70;91.90
1886;SHT31;943;51.568;6.998;2023-06-24T15:19:45;28.10;89.00
1886;SHT31;943;51.568;6.998;2023-06-24T15:24:15;27.90;92.20
1886;SHT31;943;51.568;6.998;2023-06-24T15:28:45;27.90;91.50
1886;SHT31;943;51.568;6.998;2023-06-24T15:33:15;27.80;91.90
1886;SHT31;943;51.568;6.998;2023-06-24T15:37:46;28.20;83.60
1886;SHT31;943;51.568;6.998;2023-06-24T15:42:16;28.10;89.60
1886;SHT31;943;51.568;6.998;2023-06-24T15:46:47;28.00;91.50
1886;SHT31;943;51.568;6.998;2023-06-24T15:51:17;27.80;92.30
1886;SHT31;943;51.568;6.998;2023-06-24T15:55:48;28.10;88.30
1886;SHT31;943;51.568;6.998;2023-06-24T16:00:17;28.50;87.70
1886;SHT31;943;51.568;6.998;2023-06-24T16:04:50;29.30;81.80
1886;SHT31;943;51.568;6.998;2023-06-24T16:09:20;28.60;85.50
1886;SHT31;943;51.568;6.998;2023-06-24T16:13:51;27.80;90.30
1886;SHT31;943;51.568;6.998;2023-06-24T16:18:20;28.00;91.60
1886;SHT31;943;51.568;6.998;2023-06-24T16:22:50;28.60;88.20
1886;SHT31;943;51.568;6.998;2023-06-24T16:27:20;28.30;88.40
1886;SHT31;943;51.568;6.998;2023-06-24T16:31:50;28.40;88.60
1886;SHT31;943;51.568;6.998;2023-06-24T16:36:19;28.70;86.80
1886;SHT31;943;51.568;6.998;2023-06-24T16:40:49;28.30;84.00
1886;SHT31;943;51.568;6.998;2023-06-24T16:45:18;27.50;91.20
1886;SHT31;943;51.568;6.998;2023-06-24T16:49:48;27.00;87.10
1886;SHT31;943;51.568;6.998;2023-06-24T16:54:18;27.10;87.70
1886;SHT31;943;51.568;6.998;2023-06-24T16:58:47;26.80;89.70
1886;SHT31;943;51.568;6.998;2023-06-24T17:03:17;26.90;90.10
1886;SHT31;943;51.568;6.998;2023-06-24T17:07:46;26.80;88.50
1886;SHT31;943;51.568;6.998;2023-06-24T17:12:16;26.70;88.50
1886;SHT31;943;51.568;6.998;2023-06-24T17:16:46;26.60;89.70
1886;SHT31;943;51.568;6.998;2023-06-24T17:21:15;26.50;86.80
1886;SHT31;943;51.568;6.998;2023-06-24T17:25:45;26.70;84.10
1886;SHT31;943;51.568;6.998;2023-06-24T17:30:16;26.70;87.50
1886;SHT31;943;51.568;6.998;2023-06-24T17:34:46;26.50;85.70
1886;SHT31;943;51.568;6.998;2023-06-24T17:39:16;26.40;90.30
1886;SHT31;943;51.568;6.998;2023-06-24T17:43:50;26.40;87.10
1886;SHT31;943;51.568;6.998;2023-06-24T17:48:20;26.30;86.20
1886;SHT31;943;51.568;6.998;2023-06-24T17:52:50;26.40;88.80
1886;SHT31;943;51.568;6.998;2023-06-24T17:57:20;26.10;90.40
1886;SHT31;943;51.568;6.998;2023-06-24T18:01:50;26.00;91.00
1886;SHT31;943;51.568;6.998;2023-06-24T18:06:20;25.80;92.20
1886;SHT31;943;51.568;6.998;2023-06-24T18:10:49;25.80;89.50
1886;SHT31;943;51.568;6.998;2023-06-24T18:15:19;25.90;90.60
1886;SHT31;943;51.568;6.998;2023-06-24T18:19:49;25.80;91.10
1886;SHT31;943;51.568;6.998;2023-06-24T18:24:18;25.70;92.30
1886;SHT31;943;51.568;6.998;2023-06-24T18:28:50;25.70;91.30
1886;SHT31;943;51.568;6.998;2023-06-24T18:33:21;25.60;91.40
1886;SHT31;943;51.568;6.998;2023-06-24T18:37:50;25.60;91.90
1886;SHT31;943;51.568;6.998;2023-06-24T18:42:21;25.50;91.00
1886;SHT31;943;51.568;6.998;2023-06-24T18:46:51;25.20;94.20
1886;SHT31;943;51.568;6.998;2023-06-24T18:51:21;25.20;92.60
1886;SHT31;943;51.568;6.998;2023-06-24T18:55:52;25.00;94.70
1886;SHT31;943;51.568;6.998;2023-06-24T19:00:22;24.90;94.20
1886;SHT31;943;51.568;6.998;2023-06-24T19:04:51;24.80;94.00
1886;SHT31;943;51.568;6.998;2023-06-24T19:09:21;24.60;96.20
1886;SHT31;943;51.568;6.998;2023-06-24T19:13:50;24.50;95.30
1886;SHT31;943;51.568;6.998;2023-06-24T19:18:20;24.40;97.20
1886;SHT31;943;51.568;6.998;2023-06-24T19:22:50;24.10;98.30
1886;SHT31;943;51.568;6.998;2023-06-24T19:27:20;24.00;99.90
1886;SHT31;943;51.568;6.998;2023-06-24T19:31:50;23.80;99.90
1886;SHT31;943;51.568;6.998;2023-06-24T19:36:19;23.60;99.90
1886;SHT31;943;51.568;6.998;2023-06-24T19:40:49;23.30;99.90
1886;SHT31;943;51.568;6.998;2023-06-24T19:45:20;23.00;99.90
1886;SHT31;943;51.568;6.998;2023-06-24T19:49:52;23.00;99.90
1886;SHT31;943;51.568;6.998;2023-06-24T19:54:23;22.80;99.90
1886;SHT31;943;51.568;6.998;2023-06-24T19:58:52;22.60;99.90
1886;SHT31;943;51.568;6.998;2023-06-24T20:03:22;22.20;99.90
1886;SHT31;943;51.568;6.998;2023-06-24T20:07:52;22.00;99.90
1886;SHT31;943;51.568;6.998;2023-06-24T20:12:21;21.80;99.90
1886;SHT31;943;51.568;6.998;2023-06-24T20:16:51;21.70;99.90
1886;SHT31;943;51.568;6.998;2023-06-24T20:21:21;21.60;99.90
1886;SHT31;943;51.568;6.998;2023-06-24T20:25:50;21.40;99.90
1886;SHT31;943;51.568;6.998;2023-06-24T20:30:20;21.30;99.90
1886;SHT31;943;51.568;6.998;2023-06-24T20:34:50;21.10;99.90
1886;SHT31;943;51.568;6.998;2023-06-24T20:39:19;21.00;99.90
1886;SHT31;943;51.568;6.998;2023-06-24T20:43:50;21.10;99.90
1886;SHT31;943;51.568;6.998;2023-06-24T20:48:21;21.20;99.90
1886;SHT31;943;51.568;6.998;2023-06-24T20:52:50;21.30;99.90
1886;SHT31;943;51.568;6.998;2023-06-24T20:57:20;21.30;99.90
1886;SHT31;943;51.568;6.998;2023-06-24T21:01:49;21.40;99.90
1886;SHT31;943;51.568;6.998;2023-06-24T21:06:19;21.30;99.90
1886;SHT31;943;51.568;6.998;2023-06-24T21:10:48;21.10;99.90
1886;SHT31;943;51.568;6.998;2023-06-24T21:15:25;21.00;99.90
1886;SHT31;943;51.568;6.998;2023-06-24T21:19:55;20.80;99.90
1886;SHT31;943;51.568;6.998;2023-06-24T21:24:25;20.60;99.90
1886;SHT31;943;51.568;6.998;2023-06-24T21:28:55;20.50;99.90
1886;SHT31;943;51.568;6.998;2023-06-24T21:33:25;20.50;99.90
1886;SHT31;943;51.568;6.998;2023-06-24T21:37:54;20.40;99.90
1886;SHT31;943;51.568;6.998;2023-06-24T21:42:24;20.50;99.90
1886;SHT31;943;51.568;6.998;2023-06-24T21:46:54;20.60;99.90
1886;SHT31;943;51.568;6.998;2023-06-24T21:51:25;20.40;99.90
1886;SHT31;943;51.568;6.998;2023-06-24T21:56:00;20.30;99.90
1886;SHT31;943;51.568;6.998;2023-06-24T22:00:30;20.10;99.90
1886;SHT31;943;51.568;6.998;2023-06-24T22:05:00;19.90;99.90
1886;SHT31;943;51.568;6.998;2023-06-24T22:09:31;19.70;99.90
1886;SHT31;943;51.568;6.998;2023-06-24T22:14:05;19.60;99.90
1886;SHT31;943;51.568;6.998;2023-06-24T22:18:39;19.40;99.90
1886;SHT31;943;51.568;6.998;2023-06-24T22:23:11;19.30;99.90
1886;SHT31;943;51.568;6.998;2023-06-24T22:27:41;19.20;99.90
1886;SHT31;943;51.568;6.998;2023-06-24T22:32:15;19.10;99.90
1886;SHT31;943;51.568;6.998;2023-06-24T22:36:45;19.00;99.90
1886;SHT31;943;51.568;6.998;2023-06-24T22:41:15;18.90;99.90
1886;SHT31;943;51.568;6.998;2023-06-24T22:45:44;18.80;99.90
1886;SHT31;943;51.568;6.998;2023-06-24T22:50:14;18.80;99.90
1886;SHT31;943;51.568;6.998;2023-06-24T22:54:45;18.70;99.90
1886;SHT31;943;51.568;6.998;2023-06-24T22:59:14;18.70;99.90
1886;SHT31;943;51.568;6.998;2023-06-24T23:03:45;18.60;99.90
1886;SHT31;943;51.568;6.998;2023-06-24T23:08:15;18.50;99.90
1886;SHT31;943;51.568;6.998;2023-06-24T23:12:46;18.50;99.90
1886;SHT31;943;51.568;6.998;2023-06-24T23:17:18;18.40;99.90
1886;SHT31;943;51.568;6.998;2023-06-24T23:21:50;18.40;99.90
1886;SHT31;943;51.568;6.998;2023-06-24T23:26:20;18.30;99.90
1886;SHT31;943;51.568;6.998;2023-06-24T23:30:55;18.30;99.90
1886;SHT31;943;51.568;6.998;2023-06-24T23:35:28;18.20;99.90
1886;SHT31;943;51.568;6.998;2023-06-24T23:39:59;18.10;99.90
1886;SHT31;943;51.568;6.998;2023-06-24T23:44:32;18.10;99.90
1886;SHT31;943;51.568;6.998;2023-06-24T23:49:03;18.10;99.90
1886;SHT31;943;51.568;6.998;2023-06-24T23:53:32;18.00;99.90
1886;SHT31;943;51.568;6.998;2023-06-24T23:58:04;17.90;99.90
